Time;durP1;ratioP1;P1;durP2;ratioP2;P2;SDS_P1;SDS_P2;PMS_P1;PMS_P2;Temp;Humidity;BMP_temperature;BMP_pressure;BME280_temperature;BME280_humidity;BME280_pressure;Samples;Min_cycle;Max_cycle;Signal;HPM_P1;HPM_P2
2023/10/15 00:01:52;;;;;;;3.53;1.65;;;;;;;11.97;nan;60497.41;5033441;28;20175;-69
2023/10/15 00:04:17;;;;;;;2.40;2.10;;;;;;;12.09;nan;60436.59;5034321;28;20167;-66
2023/10/15 00:06:43;;;;;;;2.33;2.10;;;;;;;12.01;nan;60627.84;5033034;28;20172;-66
2023/10/15 00:09:09;;;;;;;3.22;2.13;;;;;;;12.05;nan;60412.19;5032862;28;20183;-67
2023/10/15 00:11:35;;;;;;;2.85;1.52;;;;;;;11.94;nan;60430.63;5032746;28;20219;-66
2023/10/15 00:14:03;;;;;;;2.28;1.80;;;;;;;12.06;nan;60630.34;5031494;28;20184;-70
2023/10/15 00:16:29;;;;;;;1.48;1.38;;;;;;;12.02;nan;60618.19;5032684;28;20191;-69
2023/10/15 00:18:54;;;;;;;2.53;2.33;;;;;;;12.04;nan;60431.00;5032633;28;20209;-66
2023/10/15 00:21:20;;;;;;;2.22;1.80;;;;;;;12.08;nan;60443.16;5032666;28;20744;-69
2023/10/15 00:23:47;;;;;;;2.45;2.25;;;;;;;12.05;nan;60460.28;5032625;28;20171;-69
2023/10/15 00:26:14;;;;;;;2.45;1.75;;;;;;;11.87;nan;60317.88;5032513;28;20634;-72
2023/10/15 00:28:41;;;;;;;7.97;2.65;;;;;;;11.98;nan;60296.88;5032169;28;20202;-68
2023/10/15 00:31:13;;;;;;;1.98;1.58;;;;;;;11.98;nan;60235.47;5032583;28;20298;-67
2023/10/15 00:33:46;;;;;;;1.67;1.58;;;;;;;12.01;nan;60254.19;5032639;28;20166;-70
2023/10/15 00:36:13;;;;;;;2.40;1.92;;;;;;;11.86;nan;60291.19;5032529;28;20195;-69
2023/10/15 00:38:49;;;;;;;2.00;1.80;;;;;;;11.95;nan;60166.16;5032283;28;20179;-65
2023/10/15 00:41:14;;;;;;;2.50;2.30;;;;;;;11.74;nan;60117.19;5032612;28;20198;-70
2023/10/15 00:43:51;;;;;;;1.80;1.70;;;;;;;11.98;nan;60022.53;5032336;28;20662;-67
2023/10/15 00:46:17;;;;;;;1.42;1.33;;;;;;;11.74;nan;59761.09;5031457;28;20179;-66
2023/10/15 00:48:43;;;;;;;1.70;1.60;;;;;;;11.71;nan;59234.03;5032171;28;20172;-66
2023/10/15 00:51:17;;;;;;;3.75;2.20;;;;;;;11.82;nan;59071.66;5032153;28;20182;-66
2023/10/15 00:53:54;;;;;;;1.67;1.58;;;;;;;11.91;nan;59020.13;5034015;28;20645;-66
2023/10/15 00:56:25;;;;;;;2.22;1.80;;;;;;;11.88;nan;58930.41;5032407;28;20198;-65
2023/10/15 01:03:48;;;;;;;1.95;1.75;;;;;;;11.71;nan;58709.28;5032406;28;20258;-68
2023/10/15 01:06:15;;;;;;;2.00;1.88;;;;;;;11.69;nan;58623.28;5031961;28;20156;-67
2023/10/15 01:08:42;;;;;;;3.50;2.13;;;;;;;11.40;nan;58446.06;5031778;28;20665;-67
2023/10/15 01:11:12;;;;;;;1.73;1.63;;;;;;;11.32;nan;58325.53;5030508;28;20635;-66
2023/10/15 01:13:38;;;;;;;2.25;1.98;;;;;;;11.28;nan;58405.50;5031709;28;20164;-68
2023/10/15 01:16:08;;;;;;;2.35;1.88;;;;;;;11.25;nan;58397.13;5030229;28;20784;-68
2023/10/15 01:18:34;;;;;;;1.73;1.63;;;;;;;11.24;nan;58523.78;5030451;28;20190;-69
2023/10/15 01:21:01;;;;;;;3.80;3.08;;;;;;;11.24;nan;58574.34;5031025;28;20637;-66
2023/10/15 01:26:23;;;;;;;2.50;2.25;;;;;;;11.20;nan;58815.78;5031516;28;20170;-68
2023/10/15 01:28:51;;;;;;;2.15;1.95;;;;;;;11.33;nan;58914.28;5031392;28;20171;-65
2023/10/15 01:31:17;;;;;;;2.33;2.13;;;;;;;11.06;nan;59041.16;5030058;28;20912;-64
2023/10/15 01:33:49;;;;;;;1.77;1.67;;;;;;;11.22;nan;59049.94;5030740;28;20176;-66
2023/10/15 01:36:27;;;;;;;3.28;1.88;;;;;;;11.14;nan;58987.53;5031694;28;20211;-66
2023/10/15 01:39:09;;;;;;;2.35;2.00;;;;;;;11.15;nan;58953.38;5031569;28;20242;-67
2023/10/15 01:41:39;;;;;;;1.88;1.77;;;;;;;11.15;nan;58983.50;5030951;28;20167;-68
2023/10/15 01:44:07;;;;;;;2.25;1.75;;;;;;;11.33;nan;58942.41;5031400;28;20534;-65
2023/10/15 01:49:36;;;;;;;2.17;1.98;;;;;;;11.37;nan;58892.59;5022673;28;20541;-67
2023/10/15 01:52:09;;;;;;;1.38;1.27;;;;;;;11.26;nan;58791.69;5032428;28;20160;-65
2023/10/15 01:54:36;;;;;;;3.13;2.38;;;;;;;11.25;nan;58890.22;5029676;28;20638;-66
2023/10/15 01:57:15;;;;;;;2.40;1.98;;;;;;;11.26;nan;58965.44;5029462;28;20555;-68
2023/10/15 01:59:45;;;;;;;1.92;1.63;;;;;;;10.95;nan;58965.28;5033187;28;20256;-69
2023/10/15 02:02:13;;;;;;;1.60;1.50;;;;;;;10.87;nan;58881.91;5032932;28;20171;-67
2023/10/15 02:04:46;;;;;;;2.33;2.13;;;;;;;10.98;nan;58782.13;5032967;28;20202;-67
2023/10/15 02:07:19;;;;;;;1.55;1.45;;;;;;;10.82;nan;58912.22;5034384;28;20171;-68
2023/10/15 02:09:45;;;;;;;2.60;1.85;;;;;;;10.80;nan;59079.09;5034210;28;20178;-70
2023/10/15 02:12:12;;;;;;;2.28;2.15;;;;;;;11.03;nan;59543.13;5035320;28;20301;-68
2023/10/15 02:14:41;;;;;;;2.25;1.92;;;;;;;10.88;nan;59513.78;5035031;28;20195;-68
2023/10/15 02:17:13;;;;;;;3.97;2.67;;;;;;;10.97;nan;59564.59;5035306;28;20196;-71
2023/10/15 02:19:41;;;;;;;2.08;1.98;;;;;;;10.68;nan;59474.44;5034818;28;20183;-67
2023/10/15 02:22:07;;;;;;;1.85;1.75;;;;;;;10.80;nan;59591.81;5034854;28;20167;-66
2023/10/15 02:24:34;;;;;;;4.18;1.88;;;;;;;10.72;nan;59649.38;5034815;28;20175;-64
2023/10/15 02:27:08;;;;;;;2.08;1.88;;;;;;;10.60;nan;59731.66;5034902;28;20266;-69
2023/10/15 02:32:08;;;;;;;2.92;2.10;;;;;;;10.34;nan;60118.88;5034363;28;20172;-66
2023/10/15 02:34:42;;;;;;;3.72;2.40;;;;;;;10.36;nan;60115.44;5034426;28;20163;-67
2023/10/15 02:37:13;;;;;;;2.70;2.47;;;;;;;10.15;nan;60010.94;5034579;28;20189;-65
2023/10/15 02:39:44;;;;;;;2.90;1.97;;;;;;;10.42;nan;60155.31;5034806;28;20184;-68
2023/10/15 02:42:09;;;;;;;2.10;1.83;;;;;;;10.36;nan;60061.84;5035111;28;20167;-69
2023/10/15 02:44:37;;;;;;;2.23;2.03;;;;;;;10.27;nan;60042.16;5035024;28;20178;-69
2023/10/15 02:47:28;;;;;;;2.17;1.98;;;;;;;10.12;nan;60128.09;5034858;28;20681;-65
2023/10/15 02:50:04;;;;;;;2.70;2.03;;;;;;;10.22;nan;60039.16;5037614;28;20163;-66
2023/10/15 02:52:42;;;;;;;2.33;2.13;;;;;;;10.19;nan;59872.53;5034483;28;20178;-69
2023/10/15 02:55:09;;;;;;;1.73;1.47;;;;;;;10.08;nan;59689.94;5034674;28;20155;-66
2023/10/15 02:57:38;;;;;;;2.43;1.87;;;;;;;10.14;nan;59678.19;5034144;28;20199;-66
2023/10/15 03:00:18;;;;;;;3.07;2.40;;;;;;;10.29;nan;59477.34;5034079;28;20270;-68
2023/10/15 03:02:45;;;;;;;2.45;1.92;;;;;;;10.17;nan;59682.06;5034277;28;20171;-70
2023/10/15 03:05:15;;;;;;;1.70;1.40;;;;;;;10.29;nan;59855.00;5033833;28;20171;-68
2023/10/15 03:07:44;;;;;;;1.40;1.30;;;;;;;10.31;nan;59767.91;5034234;28;20175;-67
2023/10/15 03:10:21;;;;;;;2.33;2.13;;;;;;;10.14;nan;59775.69;5032936;28;20549;-64
2023/10/15 03:12:47;;;;;;;1.70;1.60;;;;;;;10.06;nan;59733.09;5034052;28;20246;-67
2023/10/15 03:15:14;;;;;;;2.30;1.50;;;;;;;10.06;nan;59707.59;5033829;28;20639;-69
2023/10/15 03:17:40;;;;;;;2.03;1.70;;;;;;;10.24;nan;59569.34;5033859;28;20685;-65
2023/10/15 03:20:11;;;;;;;3.65;2.35;;;;;;;10.19;nan;59436.28;5033591;28;20281;-68
2023/10/15 03:22:39;;;;;;;2.92;1.85;;;;;;;10.09;nan;59522.16;5034020;28;20626;-68
2023/10/15 03:25:13;;;;;;;2.53;2.33;;;;;;;10.16;nan;59619.75;5034040;28;20172;-65
2023/10/15 03:27:42;;;;;;;1.63;1.50;;;;;;;10.08;nan;59873.63;5033885;28;20179;-70
2023/10/15 03:30:10;;;;;;;3.30;2.63;;;;;;;10.02;nan;59945.50;5033487;28;20332;-70
2023/10/15 03:32:44;;;;;;;2.33;1.83;;;;;;;10.07;nan;60046.00;5033490;28;20729;-69
2023/10/15 03:35:27;;;;;;;1.63;1.50;;;;;;;9.93;nan;59935.50;5033404;28;20250;-65
2023/10/15 03:37:59;;;;;;;1.77;1.63;;;;;;;9.93;nan;59825.84;5033356;28;20696;-66
2023/10/15 03:40:46;;;;;;;1.20;1.20;;;;;;;10.01;nan;59941.81;5033271;28;20232;-68
2023/10/15 03:43:15;;;;;;;2.37;1.90;;;;;;;10.04;nan;59644.16;5033243;28;20182;-66
2023/10/15 03:45:52;;;;;;;1.93;1.57;;;;;;;9.82;nan;59503.13;5032834;28;20176;-69
2023/10/15 03:48:21;;;;;;;1.57;1.47;;;;;;;9.99;nan;59427.50;5035537;28;20186;-66
2023/10/15 03:50:56;;;;;;;1.60;1.50;;;;;;;9.92;nan;59419.25;5033123;28;20631;-67
2023/10/15 03:53:27;;;;;;;1.70;1.60;;;;;;;9.79;nan;59418.22;5032980;28;20163;-66
2023/10/15 03:55:55;;;;;;;2.57;1.70;;;;;;;9.97;nan;59539.53;5032941;28;20633;-66
2023/10/15 03:58:22;;;;;;;2.27;1.77;;;;;;;10.02;nan;59736.34;5033156;28;20270;-70
2023/10/15 04:00:48;;;;;;;1.57;1.47;;;;;;;9.99;nan;59733.56;5032842;28;20244;-66
2023/10/15 04:03:27;;;;;;;1.83;1.73;;;;;;;9.98;nan;59604.38;5033181;28;20175;-67
2023/10/15 04:06:05;;;;;;;2.20;2.00;;;;;;;9.95;nan;59601.63;5031601;28;20612;-65
2023/10/15 04:08:31;;;;;;;1.57;1.47;;;;;;;9.75;nan;59622.88;5032781;28;20167;-70
2023/10/15 04:10:57;;;;;;;1.50;1.40;;;;;;;9.93;nan;59505.06;5032663;28;20711;-67
2023/10/15 04:13:26;;;;;;;1.63;1.53;;;;;;;9.86;nan;59441.22;5032365;28;20599;-68
2023/10/15 04:15:54;;;;;;;1.50;1.40;;;;;;;9.68;nan;59390.81;5032101;28;20195;-66
2023/10/15 04:18:23;;;;;;;3.03;2.10;;;;;;;9.59;nan;59271.84;5032222;28;20665;-68
2023/10/15 04:20:49;;;;;;;1.53;1.43;;;;;;;9.63;nan;59143.19;5032426;28;20179;-65
2023/10/15 04:23:30;;;;;;;1.70;1.50;;;;;;;9.55;nan;59088.53;5032436;28;20228;-67
2023/10/15 04:25:57;;;;;;;1.50;1.40;;;;;;;9.60;nan;59013.03;5032594;28;20550;-68
2023/10/15 04:28:25;;;;;;;1.87;1.77;;;;;;;9.66;nan;58978.28;5031964;28;20241;-69
2023/10/15 04:30:51;;;;;;;1.87;1.50;;;;;;;9.75;nan;58965.19;5032481;28;20179;-66
2023/10/15 04:33:19;;;;;;;1.60;1.43;;;;;;;9.89;nan;58947.38;5032478;28;20175;-67
2023/10/15 04:35:48;;;;;;;1.70;1.60;;;;;;;9.96;nan;58875.97;5032246;28;20195;-66
2023/10/15 04:38:21;;;;;;;2.10;1.93;;;;;;;9.87;nan;58901.28;5032420;28;20313;-68
2023/10/15 04:43:25;;;;;;;1.60;1.50;;;;;;;9.84;nan;58852.13;5032061;28;20261;-67
2023/10/15 04:45:55;;;;;;;2.03;1.70;;;;;;;10.13;nan;58853.19;5031898;28;20186;-65
2023/10/15 04:48:29;;;;;;;2.03;1.80;;;;;;;10.17;nan;58888.22;5034396;28;20178;-64
2023/10/15 04:51:01;;;;;;;2.00;1.40;;;;;;;10.03;nan;58862.69;5031102;28;20171;-68
2023/10/15 04:53:30;;;;;;;1.40;1.30;;;;;;;10.25;nan;58896.41;5031514;28;20164;-69
2023/10/15 04:55:56;;;;;;;1.73;1.60;;;;;;;10.24;nan;58977.47;5030257;28;20208;-67
2023/10/15 04:58:27;;;;;;;2.20;1.83;;;;;;;10.27;nan;58954.69;5030404;28;20597;-66
2023/10/15 05:00:54;;;;;;;2.13;1.70;;;;;;;10.33;nan;59005.19;5031687;28;20179;-68
2023/10/15 05:03:20;;;;;;;1.67;1.57;;;;;;;10.40;nan;59086.88;5031594;28;20218;-67
2023/10/15 05:05:46;;;;;;;1.87;1.73;;;;;;;10.52;nan;59102.00;5031819;28;20603;-70
2023/10/15 05:08:12;;;;;;;1.48;1.38;;;;;;;10.71;nan;59135.59;5031545;28;20221;-69
2023/10/15 05:10:44;;;;;;;2.20;1.88;;;;;;;10.79;nan;59220.44;5031473;28;20652;-68
2023/10/15 05:13:13;;;;;;;1.48;1.20;;;;;;;10.99;nan;59506.06;5031748;28;20297;-65
2023/10/15 05:15:42;;;;;;;1.55;1.45;;;;;;;10.89;nan;59645.16;5031407;28;20316;-67
2023/10/15 05:18:08;;;;;;;1.38;1.27;;;;;;;11.16;nan;59807.88;5031354;28;20615;-68
2023/10/15 05:20:33;;;;;;;2.55;1.85;;;;;;;11.24;nan;59966.97;5031612;28;20172;-69
2023/10/15 05:22:59;;;;;;;1.60;1.50;;;;;;;11.19;nan;60082.09;5028779;28;20893;-68
2023/10/15 05:25:24;;;;;;;2.03;1.92;;;;;;;11.48;nan;60116.38;5029072;28;20186;-67
2023/10/15 05:27:50;;;;;;;1.40;1.30;;;;;;;11.55;nan;60200.88;5029565;28;20206;-67
2023/10/15 05:30:16;;;;;;;2.13;1.60;;;;;;;11.58;nan;60480.44;5029832;28;20233;-68
2023/10/15 05:32:45;;;;;;;2.67;1.98;;;;;;;11.81;nan;60336.78;5030831;28;20194;-68
2023/10/15 05:35:11;;;;;;;2.28;1.58;;;;;;;11.91;nan;60386.88;5033530;28;20179;-67
2023/10/15 05:37:39;;;;;;;2.60;2.10;;;;;;;12.16;nan;60623.63;5033851;28;20268;-68
2023/10/15 05:40:06;;;;;;;2.63;1.58;;;;;;;12.02;nan;60638.66;5035417;28;20190;-67
2023/10/15 05:42:31;;;;;;;1.75;1.65;;;;;;;12.10;nan;60824.81;5034526;28;20630;-69
2023/10/15 05:44:57;;;;;;;1.50;1.40;;;;;;;12.18;nan;60726.28;5035563;28;20181;-65
2023/10/15 05:47:24;;;;;;;1.88;1.77;;;;;;;12.23;nan;60716.53;5035356;28;20176;-66
2023/10/15 05:49:50;;;;;;;1.13;1.10;;;;;;;12.50;nan;60791.81;5036690;28;20206;-66
2023/10/15 05:52:15;;;;;;;1.67;1.40;;;;;;;12.53;nan;60662.53;5035006;28;20175;-68
2023/10/15 05:54:41;;;;;;;2.00;1.42;;;;;;;12.61;nan;60758.06;5033542;28;20258;-67
2023/10/15 05:57:07;;;;;;;2.17;1.77;;;;;;;12.92;nan;60785.19;5034873;28;20560;-68
2023/10/15 05:59:36;;;;;;;1.80;1.45;;;;;;;13.10;nan;60866.38;5033635;28;20182;-66
2023/10/15 06:02:04;;;;;;;2.60;1.63;;;;;;;13.07;nan;60907.19;5034977;28;20181;-64
2023/10/15 06:04:33;;;;;;;2.35;1.70;;;;;;;13.19;nan;60835.50;5034804;28;20168;-68
2023/10/15 06:06:58;;;;;;;1.60;1.50;;;;;;;13.28;nan;60928.25;5034545;28;20172;-64
2023/10/15 06:09:24;;;;;;;1.60;1.50;;;;;;;13.39;nan;60845.16;5034642;28;20183;-66
2023/10/15 06:11:50;;;;;;;2.58;1.85;;;;;;;13.41;nan;60991.06;5034099;28;20219;-65
2023/10/15 06:14:16;;;;;;;4.70;1.83;;;;;;;13.76;nan;60913.88;5034899;28;20203;-69
2023/10/15 06:16:41;;;;;;;1.63;1.52;;;;;;;14.06;nan;60961.00;5034466;28;20278;-68
2023/10/15 06:19:09;;;;;;;2.53;1.63;;;;;;;14.03;nan;61014.16;5034554;28;20198;-66
2023/10/15 06:21:34;;;;;;;3.65;2.53;;;;;;;14.19;nan;61010.50;5032707;28;20233;-66
2023/10/15 06:24:00;;;;;;;1.40;1.25;;;;;;;14.33;nan;61051.97;5034158;28;20171;-68
2023/10/15 06:26:26;;;;;;;1.48;1.38;;;;;;;14.46;nan;61154.59;5034510;28;20183;-69
2023/10/15 06:28:51;;;;;;;1.58;1.48;;;;;;;14.49;nan;60965.19;5034298;28;20524;-65
2023/10/15 06:31:16;;;;;;;4.70;2.15;;;;;;;14.52;nan;60957.72;5034726;28;20267;-66
2023/10/15 06:33:42;;;;;;;2.70;1.60;;;;;;;14.74;nan;61185.63;5034336;28;20662;-67
2023/10/15 06:36:07;;;;;;;2.63;1.65;;;;;;;14.98;nan;61060.41;5034029;28;20191;-68
2023/10/15 06:38:33;;;;;;;1.85;1.40;;;;;;;15.06;nan;61228.34;5034085;28;20263;-69
2023/10/15 06:41:00;;;;;;;1.98;1.75;;;;;;;15.20;nan;61123.22;5034260;28;20544;-65
2023/10/15 06:43:26;;;;;;;1.65;1.52;;;;;;;15.15;nan;61113.00;5034056;28;20234;-67
2023/10/15 06:45:51;;;;;;;2.90;2.40;;;;;;;15.32;nan;61036.38;5034241;28;20175;-68
2023/10/15 06:48:18;;;;;;;1.40;1.30;;;;;;;15.56;nan;61367.25;5036892;28;20250;-66
2023/10/15 06:50:44;;;;;;;1.98;1.30;;;;;;;15.49;nan;61117.28;5033994;28;20172;-68
2023/10/15 06:53:09;;;;;;;1.80;1.70;;;;;;;15.77;nan;61132.88;5033599;28;20232;-66
2023/10/15 06:55:35;;;;;;;1.60;1.50;;;;;;;15.76;nan;61160.09;5033536;28;20180;-68
2023/10/15 06:58:01;;;;;;;1.23;1.02;;;;;;;16.19;nan;61236.38;5033850;28;20199;-69
2023/10/15 07:00:28;;;;;;;1.40;1.30;;;;;;;16.22;nan;61348.59;5033463;28;20616;-68
2023/10/15 07:02:54;;;;;;;2.40;2.20;;;;;;;16.45;nan;61211.03;5033631;28;20175;-68
2023/10/15 07:05:21;;;;;;;1.60;1.48;;;;;;;16.55;nan;61395.13;5033636;28;20180;-68
2023/10/15 07:07:47;;;;;;;1.10;1.02;;;;;;;16.72;nan;61391.72;5033577;28;20176;-68
2023/10/15 07:10:15;;;;;;;3.42;1.63;;;;;;;16.87;nan;61394.66;5033359;28;20255;-65
2023/10/15 07:12:43;;;;;;;1.50;1.27;;;;;;;16.90;nan;61419.25;5033386;28;20219;-65
2023/10/15 07:15:09;;;;;;;2.72;1.58;;;;;;;17.05;nan;61415.59;5033375;28;20171;-64
2023/10/15 07:17:38;;;;;;;3.05;1.85;;;;;;;17.08;nan;61444.22;5032970;28;20250;-69
2023/10/15 07:20:21;;;;;;;2.30;1.50;;;;;;;17.20;nan;61344.75;5032696;28;20544;-67
2023/10/15 07:22:51;;;;;;;1.38;1.27;;;;;;;17.50;nan;61529.94;5033262;28;20160;-68
2023/10/15 07:25:20;;;;;;;1.20;1.10;;;;;;;14.53;nan;61167.06;5032865;28;20656;-69
2023/10/15 07:27:48;;;;;;;1.30;1.20;;;;;;;17.86;nan;61505.59;5033565;28;20163;-69
2023/10/15 07:30:15;;;;;;;1.92;1.73;;;;;;;17.82;nan;61434.44;5032635;28;20550;-63
2023/10/15 07:32:42;;;;;;;2.05;1.58;;;;;;;17.75;nan;61508.66;5031715;28;20187;-63
2023/10/15 07:35:11;;;;;;;2.38;1.85;;;;;;;18.02;nan;61420.31;5032720;28;20176;-62
2023/10/15 07:37:41;;;;;;;1.35;1.25;;;;;;;18.05;nan;61421.69;5032842;28;20353;-63
2023/10/15 07:40:18;;;;;;;1.48;1.17;;;;;;;17.99;nan;61409.16;5032899;28;20172;-63
2023/10/15 07:42:48;;;;;;;1.63;1.52;;;;;;;18.23;nan;61524.22;5032648;28;20171;-64
2023/10/15 07:45:14;;;;;;;1.20;1.10;;;;;;;18.52;nan;61714.34;5032804;28;20225;-65
2023/10/15 07:47:39;;;;;;;1.65;1.55;;;;;;;18.46;nan;61607.19;5032773;28;20194;-62
2023/10/15 07:50:08;;;;;;;1.27;1.17;;;;;;;18.76;nan;61487.41;5030185;28;20532;-63
2023/10/15 07:52:34;;;;;;;1.38;1.27;;;;;;;18.90;nan;61565.38;5030861;28;20171;-64
2023/10/15 07:55:01;;;;;;;2.38;2.13;;;;;;;18.99;nan;61637.72;5030842;28;20255;-65
2023/10/15 07:57:27;;;;;;;1.23;1.13;;;;;;;19.15;nan;61534.13;5031063;28;20209;-66
2023/10/15 07:59:58;;;;;;;1.38;1.27;;;;;;;19.22;nan;61559.63;5031043;28;20559;-65
2023/10/15 08:02:26;;;;;;;2.55;1.63;;;;;;;19.14;nan;61506.53;5026949;28;20232;-65
2023/10/15 08:04:54;;;;;;;2.05;1.77;;;;;;;19.27;nan;61545.13;5030995;28;20171;-62
2023/10/15 08:07:20;;;;;;;1.50;1.23;;;;;;;19.28;nan;61494.44;5031298;28;20801;-64
2023/10/15 08:09:45;;;;;;;1.73;1.60;;;;;;;19.55;nan;61602.22;5030273;28;20262;-63
2023/10/15 08:12:11;;;;;;;2.47;1.55;;;;;;;19.37;nan;61559.03;5030522;28;20318;-62
2023/10/15 08:14:37;;;;;;;2.70;1.65;;;;;;;19.69;nan;61672.50;5030167;28;20556;-64
2023/10/15 08:17:03;;;;;;;1.23;1.13;;;;;;;19.57;nan;61586.31;5030580;28;20689;-66
2023/10/15 08:19:28;;;;;;;1.83;1.20;;;;;;;19.77;nan;61683.59;5029915;28;20179;-66
2023/10/15 08:21:54;;;;;;;1.70;1.50;;;;;;;20.06;nan;61671.84;5030727;28;20183;-65
2023/10/15 08:24:19;;;;;;;1.75;1.48;;;;;;;20.16;nan;61613.69;5030691;28;20576;-61
2023/10/15 08:26:45;;;;;;;1.20;1.10;;;;;;;20.51;nan;61686.00;5029608;28;20552;-63
2023/10/15 08:29:11;;;;;;;1.50;1.40;;;;;;;20.58;nan;61697.09;5030092;28;20549;-62
2023/10/15 08:31:36;;;;;;;2.28;1.85;;;;;;;20.87;nan;61737.22;5030458;28;20191;-66
2023/10/15 08:34:02;;;;;;;1.50;1.40;;;;;;;20.73;nan;61768.63;5031058;28;20222;-65
2023/10/15 08:36:28;;;;;;;4.07;1.90;;;;;;;20.96;nan;61759.84;5029984;28;20203;-62
2023/10/15 08:38:53;;;;;;;3.47;1.67;;;;;;;20.90;nan;61730.22;5029885;28;20206;-65
2023/10/15 08:41:21;;;;;;;2.05;1.20;;;;;;;21.09;nan;61855.72;5030145;28;20760;-62
2023/10/15 08:43:50;;;;;;;2.70;1.70;;;;;;;21.37;nan;61697.22;5029365;28;20248;-62
2023/10/15 08:46:22;;;;;;;1.67;1.30;;;;;;;21.44;nan;61801.38;5030191;28;20179;-63
2023/10/15 08:48:49;;;;;;;1.20;1.08;;;;;;;19.58;nan;61672.41;5029380;28;20180;-63
2023/10/15 08:51:21;;;;;;;1.75;1.40;;;;;;;21.65;nan;61809.03;5030574;28;20249;-63
2023/10/15 08:53:49;;;;;;;1.27;1.17;;;;;;;21.75;nan;61838.00;5029334;28;20272;-64
2023/10/15 08:56:20;;;;;;;1.45;1.33;;;;;;;21.83;nan;61828.88;5030774;28;20261;-62
2023/10/15 08:58:52;;;;;;;1.92;1.73;;;;;;;21.42;nan;61814.09;5029916;28;20193;-63
2023/10/15 09:01:18;;;;;;;1.75;1.27;;;;;;;21.80;nan;61854.09;5029633;28;20604;-64
2023/10/15 09:03:44;;;;;;;2.92;1.95;;;;;;;21.94;nan;61849.78;5029344;28;20262;-61
2023/10/15 09:06:09;;;;;;;2.17;1.70;;;;;;;22.11;nan;61860.72;5029850;28;20189;-64
2023/10/15 09:08:35;;;;;;;1.48;1.38;;;;;;;22.29;nan;61878.53;5032648;28;20183;-65
2023/10/15 09:11:00;;;;;;;2.10;1.50;;;;;;;22.28;nan;61876.84;5033862;28;20233;-64
2023/10/15 09:13:26;;;;;;;3.13;1.90;;;;;;;22.13;nan;61865.03;5034572;28;20646;-64
2023/10/15 09:15:52;;;;;;;3.53;1.80;;;;;;;22.57;nan;61945.69;5034834;28;20847;-63
2023/10/15 09:18:18;;;;;;;1.67;1.48;;;;;;;22.56;nan;61882.06;5034169;28;20201;-63
2023/10/15 09:20:46;;;;;;;2.63;1.67;;;;;;;22.83;nan;61939.38;5033495;28;20549;-67
2023/10/15 09:23:12;;;;;;;1.60;1.30;;;;;;;22.83;nan;61946.63;5033994;28;20261;-63
2023/10/15 09:25:38;;;;;;;1.38;1.23;;;;;;;22.58;nan;61847.84;5034150;28;20278;-62
2023/10/15 09:28:05;;;;;;;5.32;1.67;;;;;;;22.66;nan;61956.50;5033342;28;20716;-64
2023/10/15 09:30:30;;;;;;;1.20;1.10;;;;;;;22.70;nan;61903.75;5032465;28;20274;-62
2023/10/15 09:32:59;;;;;;;2.90;1.60;;;;;;;23.00;nan;61991.44;5033457;28;20291;-63
2023/10/15 09:35:25;;;;;;;2.05;1.48;;;;;;;22.96;nan;62081.28;5029911;28;20186;-63
2023/10/15 09:37:54;;;;;;;1.60;1.42;;;;;;;23.23;nan;62012.38;5033042;28;20265;-66
2023/10/15 09:40:24;;;;;;;1.42;1.33;;;;;;;23.34;nan;61986.38;5035244;28;20258;-63
2023/10/15 09:42:53;;;;;;;2.38;2.17;;;;;;;23.55;nan;62063.91;5035289;28;20184;-66
2023/10/15 09:45:23;;;;;;;1.77;1.60;;;;;;;23.51;nan;62049.50;5034794;28;20190;-62
2023/10/15 09:47:57;;;;;;;1.85;1.60;;;;;;;23.44;nan;62023.28;5033146;28;20645;-63
2023/10/15 09:50:27;;;;;;;2.15;1.60;;;;;;;23.40;nan;62016.06;5034448;28;20243;-65
2023/10/15 09:53:01;;;;;;;1.40;1.30;;;;;;;23.39;nan;62090.59;5032813;28;20266;-63
2023/10/15 09:55:29;;;;;;;5.68;2.33;;;;;;;23.86;nan;62075.16;5029607;28;20307;-62
2023/10/15 09:57:58;;;;;;;1.83;1.35;;;;;;;23.82;nan;62073.19;5033173;28;20202;-65
2023/10/15 10:00:47;;;;;;;1.85;1.60;;;;;;;24.08;nan;62100.19;5033827;28;20182;-67
2023/10/15 10:03:30;;;;;;;2.00;1.60;;;;;;;24.31;nan;62233.50;5031318;28;20203;-64
2023/10/15 10:06:36;;;;;;;2.15;1.83;;;;;;;24.37;nan;62235.09;5033539;28;20195;-63
2023/10/15 10:09:17;;;;;;;1.38;1.27;;;;;;;24.33;nan;62272.34;5032753;28;20330;-63
2023/10/15 10:12:07;;;;;;;2.85;1.45;;;;;;;24.24;nan;62180.53;5031894;28;20249;-64
2023/10/15 10:15:03;;;;;;;2.83;1.80;;;;;;;24.32;nan;62066.91;5028924;28;20673;-67
2023/10/15 10:17:30;;;;;;;2.00;1.60;;;;;;;24.60;nan;62201.22;5029190;28;20207;-64
2023/10/15 10:19:55;;;;;;;1.95;1.67;;;;;;;24.46;nan;62156.53;5032914;28;20258;-61
2023/10/15 10:22:25;;;;;;;2.58;1.00;;;;;;;24.52;nan;62254.81;5032878;28;20258;-64
2023/10/15 10:24:52;;;;;;;1.38;1.20;;;;;;;24.57;nan;62242.25;5032385;28;20187;-65
2023/10/15 10:27:18;;;;;;;6.35;2.53;;;;;;;24.41;nan;62327.94;5032837;28;20199;-64
2023/10/15 10:29:49;;;;;;;1.48;1.38;;;;;;;24.74;nan;62263.13;5032321;28;20209;-65
2023/10/15 10:32:15;;;;;;;1.33;1.20;;;;;;;24.96;nan;62293.47;5031041;28;20211;-64
2023/10/15 10:34:41;;;;;;;2.40;1.90;;;;;;;24.89;nan;62144.28;5032025;28;20694;-62
2023/10/15 10:37:23;;;;;;;9.75;2.42;;;;;;;25.13;nan;62307.06;5032660;28;20210;-66
2023/10/15 10:39:49;;;;;;;1.48;1.10;;;;;;;25.03;nan;62144.53;5033358;28;20179;-65
2023/10/15 10:42:26;;;;;;;1.63;1.48;;;;;;;25.27;nan;62236.69;5033340;28;20175;-63
2023/10/15 10:44:56;;;;;;;2.42;1.60;;;;;;;25.43;nan;62288.97;5031537;28;20179;-62
2023/10/15 10:47:29;;;;;;;2.28;1.40;;;;;;;25.48;nan;62292.63;5032367;28;20648;-65
2023/10/15 10:50:03;;;;;;;2.47;1.58;;;;;;;25.63;nan;62311.22;5031225;28;20175;-63
2023/10/15 10:52:36;;;;;;;3.70;1.38;;;;;;;25.59;nan;62256.94;5028340;28;20221;-65
2023/10/15 10:55:35;;;;;;;2.80;1.73;;;;;;;25.82;nan;62380.63;5031666;28;20183;-63
2023/10/15 10:58:21;;;;;;;1.48;1.38;;;;;;;25.39;nan;62269.25;5031359;28;20195;-61
2023/10/15 11:00:47;;;;;;;2.00;1.50;;;;;;;25.47;nan;62286.25;5030367;28;20254;-63
2023/10/15 11:03:12;;;;;;;2.00;1.67;;;;;;;25.52;nan;62335.88;5032365;28;20269;-62
2023/10/15 11:05:38;;;;;;;2.28;2.00;;;;;;;25.58;nan;62431.72;5031306;28;20580;-64
2023/10/15 11:08:15;;;;;;;1.98;1.67;;;;;;;25.65;nan;62331.84;5032380;28;20205;-65
2023/10/15 11:10:44;;;;;;;2.22;1.48;;;;;;;25.79;nan;62350.44;5030012;28;20187;-65
2023/10/15 11:13:10;;;;;;;2.13;1.80;;;;;;;25.78;nan;62459.25;5032060;28;20230;-64
2023/10/15 11:15:36;;;;;;;2.88;2.20;;;;;;;26.10;nan;62277.84;5030933;28;21253;-62
2023/10/15 11:18:05;;;;;;;3.15;1.88;;;;;;;25.88;nan;62381.66;5033341;28;20646;-64
2023/10/15 11:20:33;;;;;;;1.88;1.60;;;;;;;25.88;nan;62321.44;5033569;28;20187;-65
2023/10/15 11:23:02;;;;;;;3.28;1.88;;;;;;;26.16;nan;62363.88;5033825;28;20182;-63
2023/10/15 11:25:28;;;;;;;1.98;1.77;;;;;;;26.20;nan;62551.84;5033836;28;20194;-65
2023/10/15 11:27:53;;;;;;;2.72;1.75;;;;;;;26.34;nan;62452.56;5032160;28;20681;-64
2023/10/15 11:30:21;;;;;;;1.73;1.45;;;;;;;26.35;nan;62503.53;5032707;28;20164;-64
2023/10/15 11:32:47;;;;;;;3.45;1.92;;;;;;;26.46;nan;62368.16;5033464;28;20172;-62
2023/10/15 11:35:15;;;;;;;1.58;1.40;;;;;;;26.28;nan;62426.78;5033661;28;20172;-60
2023/10/15 11:37:42;;;;;;;2.45;1.67;;;;;;;26.59;nan;62406.59;5033455;28;20264;-63
2023/10/15 11:40:11;;;;;;;1.70;1.20;;;;;;;26.58;nan;62450.59;5034447;28;20549;-63
2023/10/15 11:42:47;;;;;;;1.80;1.45;;;;;;;26.56;nan;62544.72;5033110;28;20271;-62
2023/10/15 11:45:19;;;;;;;2.15;1.58;;;;;;;26.60;nan;62436.56;5033427;28;20178;-62
2023/10/15 11:47:44;;;;;;;5.50;1.73;;;;;;;26.66;nan;62508.97;5033353;28;20182;-65
2023/10/15 11:50:12;;;;;;;2.00;1.80;;;;;;;26.58;nan;62381.88;5032973;28;20175;-61
2023/10/15 11:52:44;;;;;;;2.60;1.65;;;;;;;26.60;nan;62578.16;5033032;28;20259;-63
2023/10/15 11:55:19;;;;;;;2.05;1.48;;;;;;;26.51;nan;62419.00;5031054;28;20225;-61
2023/10/15 11:57:49;;;;;;;2.17;1.50;;;;;;;26.25;nan;62405.59;5032753;28;20688;-63
2023/10/15 12:00:31;;;;;;;4.78;1.90;;;;;;;26.42;nan;62421.25;5032028;28;20172;-62
2023/10/15 12:03:09;;;;;;;2.15;1.10;;;;;;;26.32;nan;62531.53;5032272;28;20167;-64
2023/10/15 12:05:35;;;;;;;3.35;1.80;;;;;;;26.15;nan;62422.97;5032663;28;20577;-63
2023/10/15 12:08:03;;;;;;;1.27;1.10;;;;;;;26.29;nan;62659.13;5032347;28;20195;-64
2023/10/15 12:10:29;;;;;;;1.50;1.40;;;;;;;26.44;nan;62533.63;5032396;28;20164;-65
2023/10/15 12:12:55;;;;;;;2.78;2.00;;;;;;;26.19;nan;62385.63;5032615;28;20276;-63
2023/10/15 12:15:20;;;;;;;2.08;1.50;;;;;;;26.20;nan;62423.44;5032560;28;20226;-64
2023/10/15 12:17:46;;;;;;;2.78;1.67;;;;;;;26.52;nan;62446.34;5031024;28;20206;-61